createdAt,value
2019-03-12T00:02:05.799Z,15.10
2019-03-12T00:04:38.190Z,15.10
2019-03-12T00:07:10.533Z,15.00
2019-03-12T00:09:42.922Z,15.00
2019-03-12T00:12:15.310Z,15.00
2019-03-12T00:14:47.746Z,15.00
2019-03-12T00:17:20.003Z,15.00
2019-03-12T00:19:52.399Z,14.90
2019-03-12T00:22:24.780Z,14.90
2019-03-12T00:24:57.280Z,14.90
2019-03-12T00:27:29.670Z,14.90
2019-03-12T00:30:02.080Z,14.90
2019-03-12T00:32:34.521Z,14.90
2019-03-12T00:35:07.163Z,14.90
2019-03-12T00:37:39.518Z,14.80
2019-03-12T00:40:11.942Z,14.90
2019-03-12T00:42:44.325Z,14.80
2019-03-12T00:45:16.740Z,14.80
2019-03-12T00:47:49.116Z,14.90
2019-03-12T00:50:21.516Z,14.80
2019-03-12T00:52:53.881Z,14.80
2019-03-12T00:55:26.269Z,14.80
2019-03-12T00:57:58.672Z,14.80
2019-03-12T01:00:31.052Z,14.80
2019-03-12T01:03:03.520Z,14.70
2019-03-12T01:05:36.017Z,14.70
2019-03-12T01:08:08.384Z,14.70
2019-03-12T01:10:40.778Z,14.70
2019-03-12T01:13:18.137Z,14.60
2019-03-12T01:15:50.477Z,14.70
2019-03-12T01:18:22.862Z,14.70
2019-03-12T01:20:55.326Z,14.70
2019-03-12T01:23:27.691Z,14.60
2019-03-12T01:26:00.098Z,14.60
2019-03-12T01:28:32.401Z,14.70
2019-03-12T01:31:04.788Z,14.70
2019-03-12T01:33:37.208Z,14.70
2019-03-12T01:36:09.595Z,14.70
2019-03-12T01:38:42.376Z,14.70
2019-03-12T01:41:14.774Z,14.70
2019-03-12T01:43:47.058Z,14.80
2019-03-12T01:46:19.385Z,14.80
2019-03-12T01:48:51.754Z,14.80
2019-03-12T01:51:24.169Z,14.80
2019-03-12T01:53:56.538Z,14.70
2019-03-12T01:56:28.925Z,14.70
2019-03-12T01:59:01.284Z,14.80
2019-03-12T02:01:33.706Z,14.80
2019-03-12T02:04:06.077Z,14.80
2019-03-12T02:06:38.473Z,14.80
2019-03-12T02:09:10.843Z,14.80
2019-03-12T02:11:43.431Z,14.80
2019-03-12T02:14:44.007Z,14.80
2019-03-12T02:17:16.466Z,14.80
2019-03-12T02:19:48.760Z,14.80
2019-03-12T02:22:21.152Z,14.80
2019-03-12T02:24:53.513Z,14.80
2019-03-12T02:27:25.830Z,14.80
2019-03-12T02:29:58.186Z,14.80
2019-03-12T02:32:30.445Z,14.80
2019-03-12T02:35:02.810Z,14.80
2019-03-12T02:37:35.251Z,14.80
2019-03-12T02:40:08.168Z,14.80
2019-03-12T02:42:40.557Z,14.70
2019-03-12T02:45:12.977Z,14.70
2019-03-12T02:47:47.024Z,14.70
2019-03-12T02:50:19.391Z,14.70
2019-03-12T02:52:51.864Z,14.70
2019-03-12T02:55:24.244Z,14.70
2019-03-12T02:57:56.614Z,14.70
2019-03-12T03:00:28.924Z,14.70
2019-03-12T03:03:01.316Z,14.70
2019-03-12T03:05:37.722Z,14.70
2019-03-12T03:08:10.620Z,14.70
2019-03-12T03:10:42.993Z,14.60
2019-03-12T03:13:15.394Z,14.60
2019-03-12T03:15:47.870Z,14.60
2019-03-12T03:18:20.253Z,14.60
2019-03-12T03:20:52.619Z,14.60
2019-03-12T03:23:25.182Z,14.60
2019-03-12T03:25:57.529Z,14.50
2019-03-12T03:28:29.926Z,14.50
2019-03-12T03:31:02.302Z,14.50
2019-03-12T03:33:34.722Z,14.50
2019-03-12T03:36:06.991Z,14.50
2019-03-12T03:38:39.381Z,14.50
2019-03-12T03:41:11.787Z,14.50
2019-03-12T03:43:44.227Z,14.40
2019-03-12T03:46:16.592Z,14.40
2019-03-12T03:48:48.992Z,14.40
2019-03-12T03:51:21.375Z,14.40
2019-03-12T03:53:53.759Z,14.40
2019-03-12T03:56:26.131Z,14.40
2019-03-12T03:58:58.541Z,14.40
2019-03-12T04:01:30.900Z,14.40
2019-03-12T04:04:03.287Z,14.40
2019-03-12T04:06:35.674Z,14.40
2019-03-12T04:09:08.066Z,14.40
2019-03-12T04:11:40.505Z,14.40
2019-03-12T04:14:12.893Z,14.30
2019-03-12T04:16:45.252Z,14.30
2019-03-12T04:19:17.638Z,14.30
2019-03-12T04:21:50.006Z,14.20
2019-03-12T04:24:22.395Z,14.20
2019-03-12T04:26:54.767Z,14.30
2019-03-12T04:29:27.159Z,14.20
2019-03-12T04:31:59.463Z,14.20
2019-03-12T04:34:41.693Z,14.20
2019-03-12T04:37:14.042Z,14.20
2019-03-12T04:39:46.425Z,14.10
2019-03-12T04:42:18.899Z,14.20
2019-03-12T04:44:51.451Z,14.10
2019-03-12T04:47:23.827Z,14.20
2019-03-12T04:49:56.194Z,14.20
2019-03-12T04:52:28.580Z,14.20
2019-03-12T04:55:00.945Z,14.10
2019-03-12T04:57:34.515Z,14.20
2019-03-12T05:00:08.979Z,14.10
2019-03-12T05:02:41.426Z,14.10
2019-03-12T05:05:13.811Z,14.10
2019-03-12T05:07:46.214Z,14.10
2019-03-12T05:10:18.608Z,14.10
2019-03-12T05:12:50.983Z,14.00
2019-03-12T05:15:23.306Z,14.00
2019-03-12T05:17:55.679Z,14.10
2019-03-12T05:20:28.108Z,14.10
2019-03-12T05:23:00.421Z,14.00
2019-03-12T05:25:32.827Z,14.10
2019-03-12T05:28:05.182Z,14.00
2019-03-12T05:30:37.585Z,14.00
2019-03-12T05:33:09.869Z,14.00
2019-03-12T05:35:42.264Z,14.00
2019-03-12T05:38:14.622Z,14.00
2019-03-12T05:40:47.018Z,14.00
2019-03-12T05:43:19.375Z,14.00
2019-03-12T05:45:51.755Z,14.00
2019-03-12T05:48:25.294Z,13.90
2019-03-12T05:50:57.675Z,13.90
2019-03-12T05:53:55.941Z,13.90
2019-03-12T05:56:28.335Z,13.90
2019-03-12T05:59:00.753Z,13.90
2019-03-12T06:01:33.142Z,13.80
2019-03-12T06:04:05.507Z,13.90
2019-03-12T06:06:37.917Z,13.80
2019-03-12T06:09:10.296Z,13.80
2019-03-12T06:11:42.687Z,13.80
2019-03-12T06:14:15.054Z,13.80
2019-03-12T06:16:48.413Z,13.80
2019-03-12T06:19:20.780Z,13.80
2019-03-12T06:21:53.212Z,13.80
2019-03-12T06:24:25.584Z,13.80
2019-03-12T06:26:58.091Z,13.80
2019-03-12T06:29:30.939Z,13.80
2019-03-12T06:32:25.164Z,13.80
2019-03-12T06:35:16.486Z,13.90
2019-03-12T06:38:25.823Z,13.80
2019-03-12T06:41:07.281Z,13.90
2019-03-12T06:44:08.302Z,13.90
2019-03-12T06:46:55.868Z,13.90
2019-03-12T06:49:41.538Z,13.90
2019-03-12T06:55:47.774Z,13.90
2019-03-12T06:58:47.497Z,13.90
2019-03-12T07:01:47.147Z,13.90
2019-03-12T07:04:31.460Z,14.00
2019-03-12T07:07:36.054Z,14.00
2019-03-12T07:10:30.308Z,14.00
2019-03-12T07:13:51.708Z,14.00
2019-03-12T07:16:45.384Z,14.00
2019-03-12T07:19:46.840Z,14.00
2019-03-12T07:22:45.377Z,14.00
2019-03-12T07:25:34.705Z,14.10
2019-03-12T07:28:25.180Z,14.00
2019-03-12T07:31:19.707Z,14.10
2019-03-12T07:34:07.249Z,14.00
2019-03-12T07:37:00.186Z,14.00
2019-03-12T07:40:06.933Z,14.00
2019-03-12T07:42:58.425Z,14.10
2019-03-12T07:45:53.856Z,14.10
2019-03-12T07:48:39.324Z,14.10
2019-03-12T07:51:33.753Z,14.20
2019-03-12T07:54:31.335Z,14.20
2019-03-12T07:57:13.938Z,14.30
2019-03-12T08:00:10.069Z,14.40
2019-03-12T08:03:17.017Z,14.40
2019-03-12T08:06:11.622Z,14.50
2019-03-12T08:09:09.842Z,14.50
2019-03-12T08:11:55.771Z,14.60
2019-03-12T08:14:50.141Z,14.60
2019-03-12T08:17:39.784Z,14.70
2019-03-12T08:20:46.642Z,14.70
2019-03-12T08:23:37.315Z,14.70
2019-03-12T08:26:41.360Z,14.80
2019-03-12T08:29:32.844Z,14.90
2019-03-12T08:32:14.536Z,15.00
2019-03-12T08:35:06.872Z,15.00
2019-03-12T08:37:58.519Z,15.20
2019-03-12T08:40:51.972Z,15.20
2019-03-12T08:43:20.358Z,15.40
2019-03-12T08:46:00.397Z,15.50
2019-03-12T08:48:54.855Z,15.60
2019-03-12T08:51:43.967Z,15.70
2019-03-12T08:54:38.826Z,15.90
2019-03-12T08:57:21.621Z,16.00
2019-03-12T09:00:20.037Z,16.20
2019-03-12T09:03:09.180Z,16.30
2019-03-12T09:06:00.555Z,16.50
2019-03-12T09:08:42.912Z,16.70
2019-03-12T09:11:37.708Z,16.80
2019-03-12T09:14:32.206Z,17.00
2019-03-12T09:17:23.957Z,17.10
2019-03-12T09:20:05.698Z,17.30
2019-03-12T09:22:46.436Z,17.50
2019-03-12T09:25:41.570Z,17.70
2019-03-12T09:28:31.048Z,17.80
2019-03-12T09:31:34.429Z,18.00
2019-03-12T09:34:17.032Z,18.20
2019-03-12T09:37:07.243Z,18.40
2019-03-12T09:39:57.346Z,18.50
2019-03-12T09:42:47.624Z,18.70
2019-03-12T09:45:37.539Z,18.80
2019-03-12T09:48:28.869Z,18.90
2019-03-12T09:51:12.470Z,18.90
2019-03-12T09:53:54.140Z,19.00
2019-03-12T09:56:47.634Z,19.10
2019-03-12T09:59:41.702Z,19.20
2019-03-12T10:02:38.743Z,19.30
2019-03-12T10:05:21.249Z,19.40
2019-03-12T10:08:03.168Z,19.50
2019-03-12T10:11:00.259Z,19.60
2019-03-12T10:13:53.368Z,19.70
2019-03-12T10:16:37.638Z,19.80
2019-03-12T10:19:27.910Z,19.90
2019-03-12T10:22:16.081Z,19.90
2019-03-12T10:25:06.283Z,20.00
2019-03-12T10:27:57.619Z,20.00
2019-03-12T10:30:37.496Z,20.00
2019-03-12T10:33:17.892Z,20.00
2019-03-12T10:36:12.328Z,20.00
2019-03-12T10:39:58.037Z,20.00
2019-03-12T10:42:52.434Z,20.10
2019-03-12T10:45:51.047Z,20.10
2019-03-12T10:48:23.510Z,20.10
2019-03-12T10:50:55.852Z,20.10
2019-03-12T10:53:28.344Z,20.10
2019-03-12T10:56:00.716Z,20.20
2019-03-12T10:58:33.129Z,20.20
2019-03-12T11:01:05.495Z,20.20
2019-03-12T11:03:37.808Z,20.20
2019-03-12T11:06:10.187Z,20.20
2019-03-12T11:08:42.567Z,20.10
2019-03-12T11:11:14.955Z,20.00
2019-03-12T11:13:47.279Z,20.00
2019-03-12T11:16:19.641Z,20.00
2019-03-12T11:18:51.941Z,19.90
2019-03-12T11:21:24.324Z,19.90
2019-03-12T11:23:56.759Z,19.80
2019-03-12T11:26:29.098Z,19.70
2019-03-12T11:29:01.473Z,19.60
2019-03-12T11:31:33.896Z,19.50
2019-03-12T11:34:06.215Z,19.40
2019-03-12T11:36:38.615Z,19.30
2019-03-12T11:39:10.998Z,19.20
2019-03-12T11:41:44.232Z,19.10
2019-03-12T11:44:16.652Z,19.00
2019-03-12T11:46:49.085Z,18.90
2019-03-12T11:49:21.618Z,18.80
2019-03-12T11:51:54.053Z,18.80
2019-03-12T11:54:26.443Z,18.70
2019-03-12T11:56:58.796Z,18.60
2019-03-12T11:59:31.118Z,18.50
2019-03-12T12:02:03.570Z,18.50
2019-03-12T12:04:35.948Z,18.40
2019-03-12T12:07:09.301Z,18.30
2019-03-12T12:09:41.680Z,18.30
2019-03-12T12:12:14.034Z,18.20
2019-03-12T12:14:46.344Z,18.20
2019-03-12T12:17:18.823Z,18.10
2019-03-12T12:19:51.216Z,18.10
2019-03-12T12:22:23.579Z,18.10
2019-03-12T12:24:55.966Z,18.10
2019-03-12T12:27:28.318Z,18.10
2019-03-12T12:30:00.710Z,18.00
2019-03-12T12:32:33.332Z,18.00
2019-03-12T12:35:06.383Z,18.00
2019-03-12T12:37:39.839Z,18.00
2019-03-12T12:40:14.609Z,17.90
2019-03-12T12:42:46.969Z,17.90
2019-03-12T12:45:20.391Z,18.00
2019-03-12T12:47:52.746Z,17.90
2019-03-12T12:50:44.480Z,17.90
2019-03-12T12:53:16.850Z,17.80
2019-03-12T12:55:49.245Z,17.80
2019-03-12T12:58:21.613Z,17.70
2019-03-12T13:00:53.999Z,17.70
2019-03-12T13:03:27.138Z,17.70
2019-03-12T13:05:59.685Z,17.70
2019-03-12T13:08:32.109Z,17.60
2019-03-12T13:11:04.557Z,17.60
2019-03-12T13:13:37.117Z,17.60
2019-03-12T13:16:09.728Z,17.50
2019-03-12T13:18:42.264Z,17.50
2019-03-12T13:21:14.788Z,17.40
2019-03-12T13:23:47.169Z,17.40
2019-03-12T13:26:20.062Z,17.40
2019-03-12T13:28:52.476Z,17.40
2019-03-12T13:31:25.198Z,17.40
2019-03-12T13:33:57.663Z,17.40
2019-03-12T13:36:30.121Z,17.40
2019-03-12T13:39:02.534Z,17.40
2019-03-12T13:41:37.113Z,17.40
2019-03-12T13:44:09.828Z,17.40
2019-03-12T13:46:43.626Z,17.40
2019-03-12T13:49:16.157Z,17.40
2019-03-12T13:51:48.805Z,17.40
2019-03-12T13:54:21.405Z,17.40
2019-03-12T13:56:53.813Z,17.40
2019-03-12T13:59:27.572Z,17.40
2019-03-12T14:02:00.244Z,17.40
2019-03-12T14:04:32.783Z,17.40
2019-03-12T14:07:05.509Z,17.40
2019-03-12T14:09:38.090Z,17.40
2019-03-12T14:12:10.487Z,17.40
2019-03-12T14:14:43.257Z,17.40
2019-03-12T14:17:15.779Z,17.40
2019-03-12T14:19:48.220Z,17.40
2019-03-12T14:22:20.611Z,17.40
2019-03-12T14:24:53.799Z,17.40
2019-03-12T14:27:26.731Z,17.40
2019-03-12T14:29:59.207Z,17.40
2019-03-12T14:32:33.950Z,17.40
2019-03-12T14:35:09.019Z,17.40
2019-03-12T14:37:41.973Z,17.40
2019-03-12T14:40:14.588Z,17.40
2019-03-12T14:42:47.329Z,17.40
2019-03-12T14:45:26.783Z,17.40
2019-03-12T14:47:59.906Z,17.40
2019-03-12T14:50:32.947Z,17.50
2019-03-12T14:53:20.942Z,17.50
2019-03-12T14:55:42.658Z,17.50
2019-03-12T14:58:15.027Z,17.50
2019-03-12T15:00:47.391Z,17.50
2019-03-12T15:03:19.702Z,17.50
2019-03-12T15:05:52.112Z,17.50
2019-03-12T15:08:24.490Z,17.50
2019-03-12T15:10:56.903Z,17.50
2019-03-12T15:13:29.372Z,17.50
2019-03-12T15:16:01.824Z,17.50
2019-03-12T15:18:35.268Z,17.50
2019-03-12T15:21:07.631Z,17.50
2019-03-12T15:23:40.035Z,17.50
2019-03-12T15:26:12.395Z,17.50
2019-03-12T15:28:44.764Z,17.50
2019-03-12T15:31:17.128Z,17.40
2019-03-12T15:33:49.501Z,17.50
2019-03-12T15:36:21.887Z,17.40
2019-03-12T15:38:54.241Z,17.40
2019-03-12T15:41:26.941Z,17.40
2019-03-12T15:43:59.319Z,17.40
2019-03-12T15:46:31.727Z,17.40
2019-03-12T15:49:04.116Z,17.40
2019-03-12T15:51:36.554Z,17.40
2019-03-12T15:54:09.209Z,17.40
2019-03-12T15:56:41.565Z,17.50
2019-03-12T15:59:13.975Z,17.50
2019-03-12T16:01:56.461Z,17.50
2019-03-12T16:04:28.937Z,17.50
2019-03-12T16:07:01.943Z,17.50
2019-03-12T16:09:34.442Z,17.50
2019-03-12T16:12:06.834Z,17.50
2019-03-12T16:14:39.235Z,17.50
2019-03-12T16:17:11.575Z,17.40
2019-03-12T16:19:43.955Z,17.40
2019-03-12T16:22:16.393Z,17.40
2019-03-12T16:24:48.812Z,17.40
2019-03-12T16:27:21.303Z,17.40
2019-03-12T16:29:55.143Z,17.40
2019-03-12T16:32:27.585Z,17.40
2019-03-12T16:34:59.974Z,17.40
2019-03-12T16:37:33.607Z,17.40
2019-03-12T16:40:06.407Z,17.40
2019-03-12T16:42:38.872Z,17.40
2019-03-12T16:45:11.386Z,17.40
2019-03-12T16:47:43.829Z,17.40
2019-03-12T16:50:16.257Z,17.30
2019-03-12T16:52:48.739Z,17.30
2019-03-12T16:55:21.081Z,17.30
2019-03-12T16:57:53.474Z,17.30
2019-03-12T17:00:25.973Z,17.30
2019-03-12T17:02:58.378Z,17.30
2019-03-12T17:05:30.783Z,17.30
2019-03-12T17:08:03.228Z,17.40
2019-03-12T17:10:35.673Z,17.30
2019-03-12T17:13:08.128Z,17.30
2019-03-12T17:15:40.453Z,17.30
2019-03-12T17:18:12.877Z,17.30
2019-03-12T17:20:45.496Z,17.30
2019-03-12T17:23:17.858Z,17.30
2019-03-12T17:25:50.237Z,17.30
2019-03-12T17:28:22.763Z,17.30
2019-03-12T17:30:55.339Z,17.30
2019-03-12T17:33:27.692Z,17.30
2019-03-12T17:36:00.075Z,17.30
2019-03-12T17:38:45.885Z,17.30
2019-03-12T17:41:06.616Z,17.30
2019-03-12T17:43:39.155Z,17.20
2019-03-12T17:46:11.465Z,17.20
2019-03-12T17:48:43.824Z,17.20
2019-03-12T17:51:16.190Z,17.20
2019-03-12T17:53:49.694Z,17.20
2019-03-12T17:56:22.310Z,17.20
2019-03-12T17:58:54.659Z,17.20
2019-03-12T18:01:30.107Z,17.20
2019-03-12T18:04:01.518Z,17.20
2019-03-12T18:06:35.256Z,17.20
2019-03-12T18:09:10.848Z,17.10
2019-03-12T18:11:43.599Z,17.10
2019-03-12T18:14:15.958Z,17.10
2019-03-12T18:16:48.334Z,17.10
2019-03-12T18:19:20.725Z,17.10
2019-03-12T18:21:53.207Z,17.10
2019-03-12T18:24:25.617Z,17.10
2019-03-12T18:26:57.960Z,17.10
2019-03-12T18:29:30.324Z,17.10
2019-03-12T18:32:02.698Z,17.10
2019-03-12T18:34:35.057Z,17.10
2019-03-12T18:37:07.460Z,17.10
2019-03-12T18:39:39.823Z,17.10
2019-03-12T18:42:12.293Z,17.10
2019-03-12T18:44:45.713Z,17.10
2019-03-12T18:47:19.385Z,17.10
2019-03-12T18:49:51.931Z,17.10
2019-03-12T18:52:24.318Z,17.10
2019-03-12T18:54:56.756Z,17.10
2019-03-12T18:57:29.144Z,17.10
2019-03-12T19:00:01.527Z,17.10
2019-03-12T19:02:35.501Z,17.10
2019-03-12T19:05:07.990Z,17.10
2019-03-12T19:07:40.463Z,17.10
2019-03-12T19:10:13.296Z,17.10
2019-03-12T19:12:46.046Z,17.10
2019-03-12T19:15:18.416Z,17.10
2019-03-12T19:17:50.902Z,17.10
2019-03-12T19:20:23.268Z,17.10
2019-03-12T19:22:55.825Z,17.10
2019-03-12T19:25:28.397Z,17.10
2019-03-12T19:28:00.789Z,17.10
2019-03-12T19:30:33.184Z,17.10
2019-03-12T19:33:17.033Z,17.10
2019-03-12T19:35:49.404Z,17.10
2019-03-12T19:38:22.961Z,17.10
2019-03-12T19:40:55.335Z,17.00
2019-03-12T19:43:28.866Z,17.10
2019-03-12T19:46:01.219Z,17.10
2019-03-12T19:48:33.715Z,17.10
2019-03-12T19:51:06.168Z,17.10
2019-03-12T19:53:38.553Z,17.10
2019-03-12T19:56:10.936Z,17.10
2019-03-12T19:58:43.319Z,17.10
2019-03-12T20:01:15.676Z,17.10
2019-03-12T20:03:48.095Z,17.10
2019-03-12T20:06:20.425Z,17.10
2019-03-12T20:08:52.776Z,17.10
2019-03-12T20:12:33.493Z,17.10
2019-03-12T20:16:19.081Z,17.10
2019-03-12T20:19:43.930Z,17.10
2019-03-12T20:23:35.929Z,17.10
2019-03-12T20:27:02.725Z,17.00
2019-03-12T20:30:45.863Z,17.00
2019-03-12T20:34:27.647Z,16.90
2019-03-12T20:38:04.017Z,16.90
2019-03-12T20:41:30.746Z,16.90
2019-03-12T20:44:58.497Z,16.90
2019-03-12T20:48:23.849Z,16.80
2019-03-12T20:52:00.347Z,16.80
2019-03-12T20:55:28.015Z,16.80
2019-03-12T20:59:13.802Z,16.80
2019-03-12T21:02:51.616Z,16.80
2019-03-12T21:06:54.742Z,16.80
2019-03-12T21:10:26.826Z,16.80
2019-03-12T21:14:13.181Z,16.80
2019-03-12T21:17:59.093Z,16.80
2019-03-12T21:21:45.192Z,16.80
2019-03-12T21:25:20.477Z,16.80
2019-03-12T21:29:13.455Z,16.80
2019-03-12T21:31:45.872Z,16.80
2019-03-12T21:34:18.285Z,16.80
2019-03-12T21:36:50.664Z,16.80
2019-03-12T21:39:23.047Z,16.90
2019-03-12T21:41:55.405Z,16.90
2019-03-12T21:44:28.052Z,17.00
2019-03-12T21:47:00.349Z,17.00
2019-03-12T21:49:32.728Z,17.00
2019-03-12T21:52:05.090Z,17.10
2019-03-12T21:54:37.886Z,17.10
2019-03-12T21:57:10.274Z,17.10
2019-03-12T21:59:42.681Z,17.20
2019-03-12T22:02:15.101Z,17.20
2019-03-12T22:04:48.462Z,17.20
2019-03-12T22:07:20.919Z,17.20
2019-03-12T22:09:53.273Z,17.30
2019-03-12T22:12:26.724Z,17.30
2019-03-12T22:14:59.164Z,17.30
2019-03-12T22:17:31.548Z,17.30
2019-03-12T22:20:03.927Z,17.30
2019-03-12T22:22:41.025Z,17.30
2019-03-12T22:25:13.683Z,17.30
2019-03-12T22:27:46.077Z,17.30
2019-03-12T22:30:21.013Z,17.20
2019-03-12T22:32:53.374Z,17.30
2019-03-12T22:35:25.754Z,17.30
2019-03-12T22:37:58.118Z,17.30
2019-03-12T22:40:30.511Z,17.20
2019-03-12T22:43:02.873Z,17.20
2019-03-12T22:45:35.269Z,17.20
2019-03-12T22:48:07.632Z,17.20
2019-03-12T22:50:40.021Z,17.20
2019-03-12T22:53:12.380Z,17.20
2019-03-12T22:55:44.759Z,17.30
2019-03-12T22:58:17.116Z,17.30
2019-03-12T23:01:07.027Z,17.20
2019-03-12T23:03:57.170Z,17.30
2019-03-12T23:06:47.620Z,17.30
2019-03-12T23:09:37.658Z,17.20
2019-03-12T23:12:11.639Z,17.20
2019-03-12T23:14:45.597Z,17.20
2019-03-12T23:17:19.589Z,17.20
2019-03-12T23:19:52.131Z,17.20
2019-03-12T23:22:25.884Z,17.20
2019-03-12T23:24:58.667Z,17.20
2019-03-12T23:27:31.111Z,17.20
2019-03-12T23:30:03.488Z,17.20
2019-03-12T23:32:37.655Z,17.20
2019-03-12T23:35:10.066Z,17.20
2019-03-12T23:37:42.482Z,17.20
2019-03-12T23:40:14.883Z,17.20
2019-03-12T23:42:47.340Z,17.30
2019-03-12T23:45:19.609Z,17.30
2019-03-12T23:47:51.985Z,17.30
2019-03-12T23:50:24.339Z,17.30
2019-03-12T23:52:56.656Z,17.30
2019-03-12T23:55:29.297Z,17.30
2019-03-12T23:58:01.730Z,17.30
